Main page
METAR-TAF:

METAR-TAF

Airports :

Bauru Airport

Bauru, São Paulo, Brazil

latitude: 22-19S, longitude: 049-04W, elevation: 590 m

Current weather observation

The report was made 1 hour and 10 minutes ago, at 09:00 UTC
Wind 23 kt from the East with gusts up to 33 kt
Temperature 15°C
Humidity 77%
Pressure 1022 hPa
Visibility 10 km or more
no clouds below 1500 m and no cumulonimbus

METAR: SBBU 230900Z 08023G33KT CAVOK 15/11 Q1022

Time: 07:10 (10:10 UTC)

Forecast

The report was made 8 hours and 10 minutes ago, at 02:00 UTC
Forecast valid from 23 at 06 UTC to 23 at 18 UTC
Wind 13 kt from the East/Southeast
Visibility 10 km or more
no clouds below 1500 m and no cumulonimbus

TAF: SBBU 230200Z 2306/2318 11013KT CAVOK TN14/2309Z TX26/2318Z RMK PER

Weather observations and forecasts of more than 4000 airports (METAR and TAF reports).

The available stations are represented by yellow and red dots on the map.

Hover mouse over dot to see the name of the station.

Then click to see weather observations and forecasts.

To change the map : click on the green buttons with a black cross to zoom in, on the green button with a dash to zoom out, or on the green arrows for adjacent maps.


METAR-TAF: